Time;durP1;ratioP1;P1;durP2;ratioP2;P2;SDS_P1;SDS_P2;PMS_P1;PMS_P2;Temp;Humidity;BMP_temperature;BMP_pressure;BME280_temperature;BME280_humidity;BME280_pressure;Samples;Min_cycle;Max_cycle;Signal;HPM_P1;HPM_P2
2024/02/01 00:01:29;;;;;;;83.20;17.83;;;8.90;99.90;;;;;;5067310;28;20033;-49
2024/02/01 00:03:54;;;;;;;80.45;15.93;;;8.90;99.90;;;;;;5068642;28;20029;-49
2024/02/01 00:06:20;;;;;;;71.82;14.90;;;8.90;99.90;;;;;;5068201;28;20044;-49
2024/02/01 00:08:46;;;;;;;83.32;17.20;;;8.90;99.90;;;;;;5066765;28;20029;-47
2024/02/01 00:11:11;;;;;;;68.32;16.15;;;8.90;99.90;;;;;;5068150;28;20056;-49
2024/02/01 00:13:37;;;;;;;66.78;15.27;;;8.90;99.90;;;;;;5066853;28;20037;-49
2024/02/01 00:16:02;;;;;;;68.97;15.27;;;8.80;99.90;;;;;;5068083;28;20024;-50
2024/02/01 00:18:28;;;;;;;69.82;15.23;;;8.80;99.90;;;;;;5083516;28;20037;-49
2024/02/01 00:20:54;;;;;;;82.10;15.93;;;8.80;99.90;;;;;;5067851;28;20032;-49
2024/02/01 00:23:19;;;;;;;51.75;14.40;;;8.80;99.90;;;;;;5066555;28;20025;-49
2024/02/01 00:25:45;;;;;;;57.90;14.00;;;8.80;99.90;;;;;;5067551;28;20021;-49
2024/02/01 00:28:10;;;;;;;61.75;15.23;;;8.80;99.90;;;;;;5066549;28;20376;-49
2024/02/01 00:30:37;;;;;;;51.60;13.75;;;8.80;99.90;;;;;;5067782;28;20044;-49
2024/02/01 00:33:03;;;;;;;58.33;14.73;;;8.80;99.90;;;;;;5067753;28;20044;-49
2024/02/01 00:35:29;;;;;;;59.58;14.52;;;8.70;99.90;;;;;;5067515;28;20445;-50
2024/02/01 00:37:54;;;;;;;63.47;14.88;;;8.70;99.90;;;;;;5067423;28;20086;-49
2024/02/01 00:40:20;;;;;;;48.20;13.02;;;8.70;99.90;;;;;;5066255;28;20441;-49
2024/02/01 00:42:45;;;;;;;63.67;15.48;;;8.70;99.90;;;;;;5067469;28;20028;-49
2024/02/01 00:45:11;;;;;;;58.88;14.70;;;8.70;99.90;;;;;;5066204;28;20060;-49
2024/02/01 00:47:36;;;;;;;55.28;12.88;;;8.70;99.90;;;;;;5066022;28;20288;-49
2024/02/01 00:50:02;;;;;;;50.15;13.75;;;8.70;99.90;;;;;;5067264;28;20033;-49
2024/02/01 00:52:28;;;;;;;57.55;12.20;;;8.70;99.90;;;;;;5067181;28;20029;-49
2024/02/01 00:54:53;;;;;;;46.50;12.57;;;8.70;99.90;;;;;;5065921;28;20044;-49
2024/02/01 00:57:19;;;;;;;40.92;12.07;;;8.60;99.90;;;;;;5067081;28;20085;-49
2024/02/01 00:59:45;;;;;;;52.63;14.45;;;8.60;99.90;;;;;;5067143;28;20050;-49
2024/02/01 01:02:10;;;;;;;49.53;11.82;;;8.60;99.90;;;;;;5082539;28;20052;-49
2024/02/01 01:04:36;;;;;;;46.03;12.60;;;8.60;99.90;;;;;;5066158;28;20495;-49
2024/02/01 01:07:01;;;;;;;43.78;11.90;;;8.60;99.90;;;;;;5067117;28;20025;-50
2024/02/01 01:09:27;;;;;;;48.33;13.30;;;8.60;99.90;;;;;;5067083;28;20081;-49
2024/02/01 01:11:53;;;;;;;46.63;13.10;;;8.60;99.90;;;;;;5067600;28;20037;-49
2024/02/01 01:14:18;;;;;;;42.45;11.32;;;8.60;99.90;;;;;;5049012;28;20032;-49
2024/02/01 01:16:44;;;;;;;41.78;12.13;;;8.60;99.90;;;;;;5065836;28;20037;-49
2024/02/01 01:19:09;;;;;;;46.08;12.63;;;8.50;99.90;;;;;;5066682;28;20028;-49
2024/02/01 01:21:35;;;;;;;53.78;12.90;;;8.60;99.90;;;;;;5065554;28;20037;-49
2024/02/01 01:24:01;;;;;;;53.58;12.45;;;8.60;99.90;;;;;;5066880;28;20101;-49
2024/02/01 01:26:26;;;;;;;44.80;11.40;;;8.60;99.90;;;;;;5066630;28;20500;-49
2024/02/01 01:28:52;;;;;;;36.95;11.15;;;8.50;99.90;;;;;;5048721;28;20029;-49
2024/02/01 01:31:17;;;;;;;52.58;13.15;;;8.50;99.90;;;;;;5066645;28;20025;-49
2024/02/01 01:33:43;;;;;;;43.58;12.70;;;8.50;99.90;;;;;;5081956;28;20484;-49
2024/02/01 01:36:08;;;;;;;39.40;11.48;;;8.50;99.90;;;;;;5065217;28;20041;-49
2024/02/01 01:38:34;;;;;;;38.17;11.32;;;8.50;99.90;;;;;;5065448;28;20036;-49
2024/02/01 01:40:59;;;;;;;37.92;11.18;;;8.50;99.90;;;;;;5082634;28;20021;-49
2024/02/01 01:43:25;;;;;;;41.30;10.98;;;8.40;99.90;;;;;;5065465;28;20049;-50
2024/02/01 01:46:01;;;;;;;38.30;11.05;;;8.40;99.90;;;;;;5065191;28;20029;-50
2024/02/01 01:48:26;;;;;;;30.77;10.23;;;8.40;99.90;;;;;;5065880;28;20556;-49
2024/02/01 01:50:52;;;;;;;48.65;10.35;;;8.40;99.90;;;;;;5048292;28;20041;-49
2024/02/01 01:53:18;;;;;;;34.25;11.48;;;8.40;99.90;;;;;;5081787;28;20052;-49
2024/02/01 01:55:44;;;;;;;41.67;10.90;;;8.40;99.90;;;;;;5065161;28;20045;-49
2024/02/01 01:58:09;;;;;;;42.10;11.38;;;8.40;99.90;;;;;;5064944;28;20350;-49
2024/02/01 02:00:35;;;;;;;39.13;10.38;;;8.40;99.90;;;;;;5082050;28;20024;-49
2024/02/01 02:03:00;;;;;;;40.05;11.45;;;8.30;99.90;;;;;;5048203;28;20074;-49
2024/02/01 02:05:26;;;;;;;32.17;9.82;;;8.30;99.90;;;;;;5064978;28;20021;-49
2024/02/01 02:07:52;;;;;;;34.75;10.98;;;8.30;99.90;;;;;;5066299;28;20354;-49
2024/02/01 02:10:17;;;;;;;34.65;9.90;;;8.30;99.90;;;;;;5066257;28;20037;-49
2024/02/01 02:12:43;;;;;;;31.02;10.20;;;8.30;99.90;;;;;;5065026;28;20509;-49
2024/02/01 02:15:09;;;;;;;34.25;10.18;;;8.30;99.90;;;;;;5081648;28;20148;-49
2024/02/01 02:17:34;;;;;;;44.45;10.63;;;8.30;99.90;;;;;;5047897;28;20023;-49
2024/02/01 02:20:15;;;;;;;39.63;10.50;;;8.30;99.90;;;;;;5064909;28;20033;-49
2024/02/01 02:22:41;;;;;;;35.75;9.68;;;8.30;99.90;;;;;;5064924;28;20025;-50
2024/02/01 02:25:09;;;;;;;33.42;10.63;;;8.30;99.90;;;;;;5065045;28;20028;-49
2024/02/01 02:27:35;;;;;;;40.95;10.65;;;8.30;99.90;;;;;;5081155;28;20026;-49
2024/02/01 02:30:01;;;;;;;30.00;9.85;;;8.20;99.90;;;;;;5064902;28;20056;-49
2024/02/01 02:32:27;;;;;;;36.25;10.55;;;8.30;99.90;;;;;;5048149;28;20028;-49
2024/02/01 02:34:53;;;;;;;35.50;10.80;;;8.20;99.90;;;;;;5064759;28;20063;-49
2024/02/01 02:37:19;;;;;;;32.67;10.27;;;8.20;99.90;;;;;;5064571;28;20051;-49
2024/02/01 02:39:45;;;;;;;37.85;9.77;;;8.20;99.90;;;;;;5065825;28;20120;-49
2024/02/01 02:42:10;;;;;;;27.05;10.32;;;8.20;99.90;;;;;;5064527;28;20032;-49
2024/02/01 02:44:36;;;;;;;27.88;9.82;;;8.20;99.90;;;;;;5066001;28;20021;-49
2024/02/01 02:47:01;;;;;;;29.88;9.57;;;8.20;99.90;;;;;;5064588;28;20060;-49
2024/02/01 02:49:27;;;;;;;26.67;9.40;;;8.20;99.90;;;;;;5068024;28;20068;-49
2024/02/01 02:51:53;;;;;;;28.45;9.63;;;8.20;99.90;;;;;;5069594;28;20089;-49
2024/02/01 02:54:18;;;;;;;32.78;10.20;;;8.20;99.90;;;;;;5068339;28;20032;-49
2024/02/01 02:56:44;;;;;;;25.38;9.15;;;8.10;99.90;;;;;;5068204;28;20056;-49
2024/02/01 02:59:10;;;;;;;23.67;8.20;;;8.10;99.90;;;;;;5068175;28;20024;-49
2024/02/01 03:01:35;;;;;;;31.75;9.30;;;8.10;99.90;;;;;;5068067;28;20096;-49
2024/02/01 03:04:01;;;;;;;32.63;9.55;;;8.10;99.90;;;;;;5068090;28;20052;-49
2024/02/01 03:06:26;;;;;;;32.22;9.52;;;8.10;99.90;;;;;;5051376;28;20033;-49
2024/02/01 03:08:53;;;;;;;38.00;9.90;;;8.10;99.90;;;;;;5069282;28;20079;-49
2024/02/01 03:11:18;;;;;;;23.33;8.68;;;8.10;99.90;;;;;;5069242;28;20091;-49
2024/02/01 03:13:47;;;;;;;32.13;9.05;;;8.10;99.90;;;;;;5068017;28;20037;-49
2024/02/01 03:16:20;;;;;;;24.00;9.13;;;8.10;99.90;;;;;;5068051;28;20415;-49
2024/02/01 03:18:46;;;;;;;28.98;9.60;;;8.10;99.90;;;;;;5067780;28;20427;-49
2024/02/01 03:21:15;;;;;;;31.80;9.90;;;8.10;99.90;;;;;;5067725;28;20033;-49
2024/02/01 03:23:41;;;;;;;31.92;8.93;;;8.10;99.90;;;;;;5069205;28;20029;-49
2024/02/01 03:26:07;;;;;;;23.05;8.60;;;8.10;99.90;;;;;;5067723;28;20055;-49
2024/02/01 03:28:32;;;;;;;27.67;9.15;;;8.10;99.90;;;;;;5067787;28;20017;-49
2024/02/01 03:30:58;;;;;;;23.65;8.55;;;8.00;99.90;;;;;;5067823;28;20493;-49
2024/02/01 03:33:24;;;;;;;18.92;7.95;;;8.10;99.90;;;;;;5051002;28;20082;-49
2024/02/01 03:35:51;;;;;;;26.55;8.57;;;8.10;99.90;;;;;;5068673;28;20053;-49
2024/02/01 03:38:17;;;;;;;29.20;8.48;;;8.10;99.90;;;;;;5067273;28;20396;-49
2024/02/01 03:40:42;;;;;;;20.67;7.57;;;8.00;99.90;;;;;;5067433;28;20057;-50
2024/02/01 03:43:11;;;;;;;30.33;8.98;;;8.00;99.90;;;;;;5067409;28;20464;-49
2024/02/01 03:45:37;;;;;;;22.02;8.02;;;8.00;99.90;;;;;;5051051;28;20022;-49
2024/02/01 03:48:03;;;;;;;23.85;7.80;;;8.00;99.90;;;;;;5067440;28;20025;-49
2024/02/01 03:50:28;;;;;;;22.17;7.93;;;7.90;99.90;;;;;;5050471;28;20055;-49
2024/02/01 03:52:54;;;;;;;22.77;8.50;;;8.00;99.90;;;;;;5068414;28;20033;-50
2024/02/01 03:55:20;;;;;;;22.77;8.40;;;8.00;99.90;;;;;;5067313;28;20051;-49
2024/02/01 03:57:46;;;;;;;22.23;8.48;;;8.00;99.90;;;;;;5067176;28;20029;-49
2024/02/01 04:00:25;;;;;;;16.15;7.22;;;7.90;99.90;;;;;;5066682;28;20077;-49
2024/02/01 04:03:03;;;;;;;23.90;9.23;;;8.00;99.90;;;;;;5052698;28;20025;-50
2024/02/01 04:05:29;;;;;;;17.42;8.02;;;8.00;99.90;;;;;;5067560;28;20029;-50
2024/02/01 04:07:55;;;;;;;20.45;7.72;;;8.00;99.90;;;;;;5068470;28;20029;-49
2024/02/01 04:10:21;;;;;;;22.75;8.13;;;8.00;99.90;;;;;;5066974;28;20032;-49
2024/02/01 04:12:47;;;;;;;22.27;8.15;;;7.90;99.90;;;;;;5066729;28;20492;-49
2024/02/01 04:15:13;;;;;;;18.27;7.80;;;7.90;99.90;;;;;;5066776;28;20021;-49
2024/02/01 04:17:38;;;;;;;18.70;7.68;;;7.90;99.90;;;;;;5067229;28;20045;-49
2024/02/01 04:20:05;;;;;;;19.92;7.53;;;7.90;99.90;;;;;;5068091;28;20028;-49
2024/02/01 04:22:32;;;;;;;23.02;7.90;;;7.90;99.90;;;;;;5066951;28;20036;-49
2024/02/01 04:24:57;;;;;;;25.33;7.82;;;7.90;99.90;;;;;;5066788;28;20067;-48
2024/02/01 04:27:23;;;;;;;17.20;7.07;;;7.90;99.90;;;;;;5066740;28;20098;-50
2024/02/01 04:29:49;;;;;;;22.58;7.50;;;7.90;99.90;;;;;;5067865;28;20037;-49
2024/02/01 04:32:14;;;;;;;22.38;7.97;;;7.90;99.90;;;;;;5066601;28;20056;-49
2024/02/01 04:34:40;;;;;;;15.38;7.45;;;7.90;99.90;;;;;;5066514;28;20055;-49
2024/02/01 04:37:05;;;;;;;24.92;8.45;;;7.90;99.90;;;;;;5066095;28;20040;-49
2024/02/01 04:39:32;;;;;;;19.88;7.38;;;7.90;99.90;;;;;;5066242;28;20088;-50
2024/02/01 04:42:14;;;;;;;22.85;7.40;;;7.90;99.90;;;;;;5049652;28;20043;-49
2024/02/01 04:44:40;;;;;;;19.02;7.78;;;8.00;99.90;;;;;;5066296;28;20052;-50
2024/02/01 04:47:06;;;;;;;17.60;7.05;;;8.00;99.90;;;;;;5067321;28;20025;-49
2024/02/01 04:49:31;;;;;;;21.33;7.53;;;7.90;99.90;;;;;;5067741;28;20037;-49
2024/02/01 04:51:57;;;;;;;19.98;7.70;;;7.90;99.90;;;;;;5066006;28;20037;-49
2024/02/01 04:54:23;;;;;;;16.98;7.65;;;8.00;99.90;;;;;;5066241;28;20025;-49
2024/02/01 04:56:48;;;;;;;12.32;6.88;;;7.90;99.90;;;;;;5066008;28;20033;-49
2024/02/01 04:59:14;;;;;;;16.17;7.20;;;7.90;99.90;;;;;;5067044;28;20037;-49
2024/02/01 05:01:40;;;;;;;23.02;8.02;;;8.00;99.90;;;;;;5066977;28;20029;-50
2024/02/01 05:04:13;;;;;;;18.30;7.55;;;8.00;99.90;;;;;;5065713;28;20040;-49
2024/02/01 05:06:39;;;;;;;15.27;6.93;;;8.00;99.90;;;;;;5067214;28;20036;-49
2024/02/01 05:09:23;;;;;;;17.90;7.03;;;7.90;99.90;;;;;;5065686;28;20404;-49
2024/02/01 05:11:51;;;;;;;16.10;6.50;;;8.00;99.90;;;;;;5065973;28;20028;-49
2024/02/01 05:14:18;;;;;;;18.17;6.93;;;7.90;99.90;;;;;;5065677;28;20029;-49
2024/02/01 05:16:44;;;;;;;16.83;7.72;;;8.00;99.90;;;;;;5066776;28;20062;-49
2024/02/01 05:19:10;;;;;;;20.75;6.75;;;8.00;99.90;;;;;;5066647;28;20052;-49
2024/02/01 05:21:36;;;;;;;15.45;6.95;;;8.00;99.90;;;;;;5065688;28;20043;-49
2024/02/01 05:24:01;;;;;;;18.75;7.90;;;8.00;99.90;;;;;;5066695;28;20056;-49
2024/02/01 05:26:27;;;;;;;15.38;7.15;;;8.00;99.90;;;;;;5065593;28;20029;-50
2024/02/01 05:28:52;;;;;;;13.40;6.70;;;8.00;99.90;;;;;;5066697;28;20025;-50
2024/02/01 05:31:19;;;;;;;14.30;6.93;;;8.00;99.90;;;;;;5066886;28;20029;-49
2024/02/01 05:33:45;;;;;;;14.20;6.95;;;8.00;99.90;;;;;;5066349;28;20025;-49
2024/02/01 05:36:11;;;;;;;17.55;6.43;;;8.00;99.90;;;;;;5065190;28;20116;-49
2024/02/01 05:38:38;;;;;;;13.60;6.25;;;8.00;99.90;;;;;;5065130;28;20072;-49
2024/02/01 05:41:11;;;;;;;15.25;6.97;;;8.00;99.90;;;;;;5065174;28;20045;-49
2024/02/01 05:43:38;;;;;;;16.02;6.70;;;8.00;99.90;;;;;;5065580;28;20048;-49
2024/02/01 05:46:08;;;;;;;18.75;6.60;;;8.00;99.90;;;;;;5065139;28;20025;-49
2024/02/01 05:48:33;;;;;;;18.38;7.43;;;8.00;99.90;;;;;;5065076;28;20034;-49
2024/02/01 05:50:59;;;;;;;20.00;6.95;;;8.00;99.90;;;;;;5065111;28;20025;-49
2024/02/01 05:53:25;;;;;;;19.60;6.75;;;8.00;99.90;;;;;;5066261;28;20056;-49
2024/02/01 05:55:51;;;;;;;16.13;6.57;;;8.10;99.90;;;;;;5069167;28;20048;-49
2024/02/01 05:58:16;;;;;;;20.10;7.45;;;8.10;99.90;;;;;;5066748;28;20044;-49
2024/02/01 06:00:42;;;;;;;17.75;7.40;;;8.10;99.90;;;;;;5085780;28;20032;-49
2024/02/01 06:03:11;;;;;;;17.60;7.43;;;8.10;99.90;;;;;;5082009;28;20013;-49
2024/02/01 06:05:36;;;;;;;18.15;7.47;;;8.00;99.90;;;;;;5083924;28;20401;-49
2024/02/01 06:08:02;;;;;;;23.00;8.80;;;8.00;99.90;;;;;;5070974;28;20032;-49
2024/02/01 06:10:27;;;;;;;27.13;8.38;;;8.10;99.90;;;;;;5065143;28;20033;-49
2024/02/01 06:12:53;;;;;;;21.27;7.22;;;8.10;99.90;;;;;;5070548;28;20051;-49
2024/02/01 06:15:19;;;;;;;25.48;8.38;;;8.10;99.90;;;;;;5081773;28;20024;-49
2024/02/01 06:17:44;;;;;;;20.35;7.53;;;8.10;99.90;;;;;;5065154;28;20155;-49
2024/02/01 06:20:11;;;;;;;47.25;9.45;;;8.10;99.90;;;;;;5071300;28;20059;-49
2024/02/01 06:22:36;;;;;;;27.83;8.57;;;8.10;99.90;;;;;;5066450;28;20494;-49
2024/02/01 06:25:03;;;;;;;40.17;8.98;;;8.10;99.90;;;;;;5088876;28;20044;-49
2024/02/01 06:27:29;;;;;;;30.63;8.68;;;8.10;99.90;;;;;;5080772;28;20020;-48
2024/02/01 06:29:58;;;;;;;42.88;9.50;;;8.10;99.90;;;;;;5068963;28;20064;-49
2024/02/01 06:32:24;;;;;;;40.58;9.80;;;8.20;99.90;;;;;;5067871;28;20029;-49
2024/02/01 06:35:05;;;;;;;35.40;8.82;;;8.10;99.90;;;;;;5050270;28;20124;-49
2024/02/01 06:37:30;;;;;;;36.35;9.88;;;8.10;99.90;;;;;;5074082;28;20068;-49
2024/02/01 06:40:26;;;;;;;50.58;10.55;;;8.10;99.90;;;;;;5088529;28;20033;-49
2024/02/01 06:42:55;;;;;;;92.05;15.68;;;8.20;99.90;;;;;;5076675;28;20093;-48
2024/02/01 06:46:09;;;;;;;62.80;11.90;;;8.20;99.90;;;;;;5051951;28;20056;-49
2024/02/01 06:48:11;;;;;;;51.53;11.93;;;8.20;99.90;;;;;;5075214;28;20615;-49
2024/02/01 06:50:57;;;;;;;61.67;12.70;;;8.20;99.90;;;;;;5081146;28;20040;-49
2024/02/01 06:53:34;;;;;;;;;;;8.20;99.90;;;;;;5089804;28;20043;-49
2024/02/01 06:56:06;;;;;;;61.28;12.13;;;8.20;99.90;;;;;;5088373;28;19913;-49
2024/02/01 06:58:46;;;;;;;69.53;12.80;;;8.20;99.90;;;;;;5054785;28;20036;-49
2024/02/01 07:01:24;;;;;;;63.58;11.57;;;8.20;99.90;;;;;;5082229;28;20057;-49
2024/02/01 07:04:15;;;;;;;66.47;11.32;;;8.20;99.90;;;;;;5087984;28;20098;-49
2024/02/01 07:07:04;;;;;;;54.75;12.40;;;8.20;99.90;;;;;;5087085;28;20027;-49
2024/02/01 07:09:27;;;;;;;52.03;10.90;;;8.20;99.90;;;;;;5073925;28;20059;-48
2024/02/01 07:12:09;;;;;;;35.45;11.05;;;8.20;99.90;;;;;;5071093;28;20464;-49
2024/02/01 07:14:41;;;;;;;50.45;11.32;;;8.20;99.90;;;;;;5088147;28;20070;-49
2024/02/01 07:17:27;;;;;;;52.97;11.30;;;8.20;99.90;;;;;;5072054;28;20084;-49
2024/02/01 07:19:53;;;;;;;49.90;11.27;;;8.30;99.90;;;;;;5088994;28;20171;-49
2024/02/01 07:22:35;;;;;;;41.85;10.68;;;8.20;99.90;;;;;;5087688;28;20111;-49
2024/02/01 07:25:10;;;;;;;43.00;12.10;;;8.20;99.90;;;;;;5088148;28;20085;-49
2024/02/01 07:57:51;;;;;;;35.50;9.45;;;8.30;99.90;;;;;;5064964;28;20035;-49
2024/02/01 08:00:33;;;;;;;31.40;9.43;;;8.30;99.90;;;;;;5066411;28;20044;-49
2024/02/01 08:03:22;;;;;;;41.65;9.35;;;8.30;99.90;;;;;;5056008;28;20040;-50
2024/02/01 08:08:35;;;;;;;32.88;9.65;;;8.30;99.90;;;;;;5056023;28;20107;-49
2024/02/01 08:11:01;;;;;;;32.35;9.40;;;8.40;99.90;;;;;;5070254;28;20141;-50
2024/02/01 08:13:27;;;;;;;28.15;8.77;;;8.40;99.90;;;;;;5043980;28;20033;-49
2024/02/01 08:15:52;;;;;;;33.50;10.07;;;8.40;99.90;;;;;;5054980;28;20115;-49
2024/02/01 08:18:19;;;;;;;23.58;8.98;;;8.40;99.90;;;;;;5077537;28;20496;-49
2024/02/01 08:20:44;;;;;;;34.10;10.32;;;8.40;99.90;;;;;;5059189;28;20120;-49
2024/02/01 08:23:13;;;;;;;32.38;8.50;;;8.40;99.90;;;;;;5034608;28;20067;-49
2024/02/01 08:25:40;;;;;;;32.42;10.48;;;8.40;99.90;;;;;;5056560;28;20036;-49
2024/02/01 08:28:08;;;;;;;35.22;8.90;;;8.40;99.90;;;;;;5047851;28;20029;-49
2024/02/01 08:30:34;;;;;;;40.95;9.77;;;8.40;99.90;;;;;;5054030;28;20026;-49
2024/02/01 08:33:03;;;;;;;32.50;10.70;;;8.50;99.90;;;;;;5062487;28;20021;-49
2024/02/01 08:35:38;;;;;;;34.10;9.88;;;8.50;99.90;;;;;;5057413;28;20080;-49
2024/02/01 08:38:04;;;;;;;;;;;8.50;99.90;;;;;;5051986;28;20068;-49
2024/02/01 08:40:30;;;;;;;;;;;8.50;99.90;;;;;;5082894;28;19909;-49
2024/02/01 08:42:59;;;;;;;27.50;8.15;;;8.50;99.90;;;;;;5088183;28;19913;-50
2024/02/01 08:45:29;;;;;;;31.75;9.68;;;8.50;99.90;;;;;;5055756;28;20045;-49
2024/02/01 08:48:02;;;;;;;29.27;9.10;;;8.50;99.90;;;;;;5047295;28;20033;-49
2024/02/01 08:50:48;;;;;;;27.02;8.30;;;8.50;99.90;;;;;;5040989;28;20428;-49
2024/02/01 08:53:14;;;;;;;26.60;8.57;;;8.50;99.90;;;;;;5055027;28;20029;-49
2024/02/01 08:55:40;;;;;;;18.63;8.75;;;8.50;99.90;;;;;;5058060;28;20040;-49
2024/02/01 08:58:09;;;;;;;23.73;8.65;;;8.50;99.90;;;;;;5062385;28;20033;-49
2024/02/01 09:00:36;;;;;;;21.60;8.00;;;8.60;99.90;;;;;;5054219;28;20030;-49
2024/02/01 09:03:03;;;;;;;27.48;8.63;;;8.60;99.90;;;;;;5051014;28;20037;-49
2024/02/01 09:06:08;;;;;;;23.83;8.50;;;8.60;99.90;;;;;;5057267;28;20021;-49
2024/02/01 09:08:38;;;;;;;23.80;9.52;;;8.60;99.90;;;;;;5048017;28;20067;-49
2024/02/01 09:11:11;;;;;;;31.27;9.77;;;8.60;99.90;;;;;;5047256;28;20029;-49
2024/02/01 09:13:38;;;;;;;27.27;9.13;;;8.60;99.90;;;;;;5050762;28;20101;-48
2024/02/01 09:16:04;;;;;;;24.55;8.98;;;8.60;99.90;;;;;;5045873;28;20089;-49
2024/02/01 09:18:30;;;;;;;31.88;9.52;;;8.60;99.90;;;;;;5048254;28;20034;-49
2024/02/01 09:20:55;;;;;;;34.75;9.38;;;8.60;99.90;;;;;;5036545;28;20021;-48
2024/02/01 09:23:24;;;;;;;22.83;8.70;;;8.60;99.90;;;;;;5048807;28;20104;-49
2024/02/01 09:25:50;;;;;;;23.88;9.15;;;8.70;99.90;;;;;;5083035;28;20029;-49
2024/02/01 09:28:15;;;;;;;25.13;8.35;;;8.70;99.90;;;;;;5056127;28;20052;-49
2024/02/01 09:30:45;;;;;;;22.60;8.02;;;8.70;99.90;;;;;;5060741;28;20033;-49
2024/02/01 09:33:15;;;;;;;24.38;8.85;;;8.70;99.90;;;;;;5064519;28;20033;-49
2024/02/01 09:35:40;;;;;;;26.42;8.60;;;8.70;99.90;;;;;;5050155;28;20025;-49
2024/02/01 09:38:06;;;;;;;23.83;8.85;;;8.70;99.90;;;;;;5054287;28;20093;-49
2024/02/01 09:40:32;;;;;;;24.60;8.13;;;8.70;99.90;;;;;;5052810;28;20036;-48
2024/02/01 09:42:57;;;;;;;26.25;8.27;;;8.70;99.90;;;;;;5057367;28;20052;-49
2024/02/01 09:45:28;;;;;;;31.70;9.18;;;8.80;99.90;;;;;;5053381;28;20022;-49
2024/02/01 09:47:54;;;;;;;21.75;8.18;;;8.70;99.90;;;;;;5062326;28;20025;-49
2024/02/01 09:50:20;;;;;;;30.20;9.55;;;8.80;99.90;;;;;;5037886;28;20737;-49
2024/02/01 09:52:50;;;;;;;25.67;8.55;;;8.80;99.90;;;;;;5053896;28;20029;-49
2024/02/01 09:55:19;;;;;;;20.83;8.48;;;8.80;99.90;;;;;;5063982;28;20043;-49
2024/02/01 09:57:49;;;;;;;23.08;8.43;;;8.80;99.90;;;;;;5046501;28;20033;-49
2024/02/01 10:00:18;;;;;;;29.00;9.32;;;8.80;99.90;;;;;;5051078;28;20029;-49
2024/02/01 10:02:48;;;;;;;36.20;9.82;;;8.80;99.90;;;;;;5061168;28;20025;-49
2024/02/01 10:05:13;;;;;;;40.65;10.35;;;8.80;99.90;;;;;;5072851;28;20450;-49
2024/02/01 10:07:39;;;;;;;30.45;9.00;;;8.90;99.90;;;;;;5057808;28;20029;-49
2024/02/01 10:10:08;;;;;;;33.00;9.13;;;8.90;99.90;;;;;;5057285;28;20493;-49
2024/02/01 10:12:34;;;;;;;43.78;9.77;;;8.90;99.90;;;;;;5065812;28;20037;-49
2024/02/01 10:15:00;;;;;;;40.80;9.65;;;8.90;99.90;;;;;;5067955;28;20038;-49
2024/02/01 10:17:25;;;;;;;31.13;9.40;;;8.90;99.90;;;;;;5056601;28;20025;-49
2024/02/01 10:19:52;;;;;;;31.48;9.77;;;8.90;99.90;;;;;;5057613;28;20546;-49
2024/02/01 10:22:19;;;;;;;28.38;9.07;;;8.90;99.90;;;;;;5047510;28;20461;-49
2024/02/01 10:24:49;;;;;;;40.53;9.73;;;9.00;99.90;;;;;;5047513;28;20029;-49
2024/02/01 10:27:21;;;;;;;33.65;8.40;;;8.90;99.90;;;;;;5046170;28;20088;-49
2024/02/01 10:29:47;;;;;;;34.10;9.32;;;9.00;99.90;;;;;;5055876;28;20057;-49
2024/02/01 10:32:16;;;;;;;36.63;9.75;;;9.00;99.90;;;;;;5057468;28;20029;-49
2024/02/01 10:34:51;;;;;;;36.45;9.60;;;9.00;99.90;;;;;;5067059;28;20112;-49
2024/02/01 10:37:23;;;;;;;45.30;11.13;;;9.00;99.90;;;;;;5072063;28;20026;-49
2024/02/01 10:40:09;;;;;;;27.77;8.77;;;9.00;99.90;;;;;;5059307;28;20477;-49
2024/02/01 10:42:35;;;;;;;24.52;8.05;;;9.00;99.90;;;;;;5059687;28;20069;-49
2024/02/01 10:45:03;;;;;;;45.63;10.25;;;9.10;99.90;;;;;;5067100;28;20354;-48
2024/02/01 10:47:31;;;;;;;42.50;9.45;;;9.10;99.90;;;;;;5045364;28;20029;-49
2024/02/01 10:49:56;;;;;;;31.30;10.10;;;9.10;99.90;;;;;;5066229;28;20036;-49
2024/02/01 10:52:22;;;;;;;39.55;10.02;;;9.10;99.90;;;;;;5072017;28;20036;-49
2024/02/01 10:54:51;;;;;;;38.78;10.00;;;9.10;99.90;;;;;;5063477;28;20114;-49
2024/02/01 10:57:17;;;;;;;26.92;9.38;;;9.10;99.90;;;;;;5038459;28;20033;-49
2024/02/01 10:59:46;;;;;;;42.30;9.80;;;9.10;99.90;;;;;;5054079;28;20084;-49
2024/02/01 11:02:12;;;;;;;36.13;9.35;;;9.10;99.90;;;;;;5056721;28;20024;-49
2024/02/01 11:04:38;;;;;;;29.25;8.88;;;9.20;99.90;;;;;;5060361;28;20093;-49
2024/02/01 11:07:04;;;;;;;25.75;9.02;;;9.20;99.90;;;;;;5033617;28;20040;-49
2024/02/01 11:09:30;;;;;;;49.47;11.48;;;9.20;99.90;;;;;;5060654;28;20091;-49
2024/02/01 11:11:57;;;;;;;34.38;9.32;;;9.20;99.90;;;;;;5049959;28;20328;-49
2024/02/01 11:14:27;;;;;;;57.10;11.20;;;9.20;99.90;;;;;;5031308;28;20171;-49
2024/02/01 11:17:02;;;;;;;45.20;11.18;;;9.20;99.90;;;;;;5052405;28;20021;-49
2024/02/01 11:19:34;;;;;;;42.30;10.77;;;9.30;99.90;;;;;;5062745;28;20030;-49
2024/02/01 11:22:03;;;;;;;57.22;10.35;;;9.30;99.90;;;;;;5058639;28;20036;-49
2024/02/01 11:24:33;;;;;;;45.80;11.80;;;9.30;99.90;;;;;;5046310;28;20021;-48
2024/02/01 11:27:17;;;;;;;47.95;10.35;;;9.30;99.90;;;;;;5063473;28;20025;-48
2024/02/01 11:29:47;;;;;;;56.45;11.25;;;9.30;99.90;;;;;;5059659;28;20033;-49
2024/02/01 11:32:17;;;;;;;68.47;12.52;;;9.30;99.90;;;;;;5049666;28;20056;-49
2024/02/01 11:34:49;;;;;;;82.85;14.48;;;9.30;99.90;;;;;;5072102;28;20032;-49
2024/02/01 11:37:19;;;;;;;52.00;10.90;;;9.30;99.90;;;;;;5071527;28;20064;-49
2024/02/01 11:39:49;;;;;;;60.20;12.13;;;9.30;99.90;;;;;;5070722;28;20040;-49
2024/02/01 11:42:15;;;;;;;69.65;13.25;;;9.40;99.90;;;;;;5071730;28;20021;-49
2024/02/01 11:44:41;;;;;;;61.78;11.38;;;9.40;99.90;;;;;;5067072;28;20037;-49
2024/02/01 11:47:07;;;;;;;59.70;12.18;;;9.40;99.90;;;;;;5061854;28;20047;-49
2024/02/01 11:49:36;;;;;;;49.67;12.40;;;9.40;99.90;;;;;;5059859;28;20048;-49
2024/02/01 11:52:16;;;;;;;65.63;12.00;;;9.40;99.90;;;;;;5058348;28;20147;-49
2024/02/01 11:54:51;;;;;;;65.82;13.10;;;9.40;99.90;;;;;;5060880;28;20064;-49
2024/02/01 11:57:17;;;;;;;39.33;10.98;;;9.50;99.90;;;;;;5046932;28;20025;-49
2024/02/01 11:59:46;;;;;;;63.28;12.48;;;9.50;99.90;;;;;;5062159;28;20119;-49
2024/02/01 12:02:12;;;;;;;74.82;11.50;;;9.50;99.90;;;;;;5065262;28;20051;-49
2024/02/01 12:04:40;;;;;;;70.95;12.35;;;9.50;99.90;;;;;;5081624;28;20033;-49
2024/02/01 12:07:08;;;;;;;69.65;11.88;;;9.50;99.90;;;;;;5066192;28;20480;-49
2024/02/01 12:09:34;;;;;;;66.50;12.05;;;9.50;99.90;;;;;;5068165;28;20056;-49
2024/02/01 12:12:00;;;;;;;54.50;11.60;;;9.60;99.90;;;;;;5056723;28;20038;-49
2024/02/01 12:14:26;;;;;;;43.92;11.27;;;9.60;99.90;;;;;;5049381;28;20035;-49
2024/02/01 12:16:53;;;;;;;83.32;14.40;;;9.60;99.90;;;;;;5064301;28;20522;-49
2024/02/01 12:19:22;;;;;;;55.78;12.07;;;9.50;99.90;;;;;;5086159;28;20033;-49
2024/02/01 12:21:53;;;;;;;75.75;12.70;;;9.60;99.90;;;;;;5083830;28;20016;-49
2024/02/01 12:24:26;;;;;;;48.97;11.90;;;9.60;99.90;;;;;;5083581;28;20108;-49
2024/02/01 12:26:52;;;;;;;66.03;13.32;;;9.60;99.90;;;;;;5079981;28;20098;-49
2024/02/01 12:29:17;;;;;;;88.25;13.75;;;9.60;99.90;;;;;;5062679;28;20025;-47
2024/02/01 12:31:43;;;;;;;72.78;12.52;;;9.60;99.90;;;;;;5054549;28;20041;-49
2024/02/01 12:34:13;;;;;;;70.85;12.38;;;9.60;99.90;;;;;;5061429;28;20466;-49
2024/02/01 12:36:39;;;;;;;41.25;11.25;;;9.50;99.90;;;;;;5069035;28;20532;-58
2024/02/01 12:39:04;;;;;;;45.45;11.43;;;9.60;99.90;;;;;;5055145;28;20116;-58
2024/02/01 12:41:34;;;;;;;42.70;10.70;;;9.60;99.90;;;;;;5051182;28;20091;-58
2024/02/01 12:44:03;;;;;;;40.42;11.52;;;9.70;99.90;;;;;;5079761;28;20121;-58
2024/02/01 12:46:29;;;;;;;51.38;11.13;;;9.70;99.90;;;;;;5078374;28;20040;-58
2024/02/01 12:48:55;;;;;;;41.10;10.30;;;9.70;99.90;;;;;;5047325;28;20433;-58
2024/02/01 12:51:26;;;;;;;50.60;10.95;;;9.70;99.90;;;;;;5052163;28;20029;-58
2024/02/01 12:53:59;;;;;;;41.30;11.13;;;9.70;99.90;;;;;;5046549;28;20037;-58
2024/02/01 12:56:25;;;;;;;48.05;9.95;;;9.70;99.90;;;;;;5050092;28;20059;-58
2024/02/01 12:58:54;;;;;;;51.08;12.55;;;9.70;99.90;;;;;;5055016;28;20114;-58
2024/02/01 13:01:20;;;;;;;45.17;10.68;;;9.80;99.90;;;;;;5059180;28;20020;-58
2024/02/01 13:03:46;;;;;;;39.15;9.35;;;9.80;99.90;;;;;;5055872;28;20031;-58
2024/02/01 13:06:12;;;;;;;53.90;11.52;;;9.80;99.90;;;;;;5074133;28;20024;-58
2024/02/01 13:08:42;;;;;;;35.88;10.07;;;9.80;99.90;;;;;;5058167;28;20040;-58
2024/02/01 13:11:10;;;;;;;45.47;10.60;;;9.80;99.90;;;;;;5066784;28;20072;-58
2024/02/01 13:13:36;;;;;;;35.78;10.63;;;9.80;99.90;;;;;;5061805;28;20028;-58
2024/02/01 13:16:02;;;;;;;46.10;12.18;;;9.80;99.90;;;;;;5075918;28;20092;-58
2024/02/01 13:18:28;;;;;;;50.35;12.07;;;9.80;99.90;;;;;;5061348;28;20041;-58
2024/02/01 13:20:55;;;;;;;153.98;18.02;;;9.80;99.90;;;;;;5075351;28;20052;-58